createdAt,value
2018-04-28T00:01:14.542Z,12.20
2018-04-28T00:03:42.115Z,12.20
2018-04-28T00:06:09.661Z,12.20
2018-04-28T00:08:41.942Z,12.30
2018-04-28T00:11:09.495Z,12.30
2018-04-28T00:13:37.058Z,12.40
2018-04-28T00:16:15.259Z,12.40
2018-04-28T00:18:50.343Z,12.40
2018-04-28T00:21:18.656Z,12.50
2018-04-28T00:23:46.232Z,12.50
2018-04-28T00:26:13.842Z,12.60
2018-04-28T00:28:43.739Z,12.60
2018-04-28T00:34:18.037Z,12.40
2018-04-28T00:40:08.763Z,12.40
2018-04-28T00:42:52.014Z,12.40
2018-04-28T00:45:22.434Z,12.40
2018-04-28T00:47:51.702Z,12.50
2018-04-28T00:50:21.199Z,12.60
2018-04-28T00:52:48.774Z,12.70
2018-04-28T00:55:27.031Z,12.70
2018-04-28T00:58:07.951Z,12.60
2018-04-28T01:03:38.012Z,12.60
2018-04-28T01:06:05.557Z,12.60
2018-04-28T01:08:33.124Z,12.50
2018-04-28T01:11:02.512Z,12.50
2018-04-28T01:13:31.019Z,12.50
2018-04-28T01:15:58.559Z,12.40
2018-04-28T01:18:26.124Z,12.20
2018-04-28T01:21:01.894Z,12.20
2018-04-28T01:23:44.334Z,12.20
2018-04-28T01:26:18.475Z,12.10
2018-04-28T01:28:48.118Z,12.10
2018-04-28T01:31:16.591Z,12.10
2018-04-28T01:34:10.924Z,11.90
2018-04-28T01:36:46.978Z,11.70
2018-04-28T01:39:17.172Z,11.60
2018-04-28T01:42:02.463Z,11.60
2018-04-28T01:44:34.629Z,11.50
2018-04-28T01:47:06.670Z,11.50
2018-04-28T01:52:36.782Z,11.60
2018-04-28T01:55:04.344Z,11.60
2018-04-28T01:57:34.686Z,11.60
2018-04-28T02:00:20.826Z,11.60
2018-04-28T02:02:56.796Z,11.60
2018-04-28T02:08:22.858Z,11.50
2018-04-28T02:10:54.373Z,11.50
2018-04-28T02:13:27.374Z,11.50
2018-04-28T02:15:56.436Z,11.50
2018-04-28T02:21:49.619Z,11.60
2018-04-28T02:27:25.253Z,11.60
2018-04-28T02:30:06.179Z,11.60
2018-04-28T02:32:37.338Z,11.40
2018-04-28T02:35:15.411Z,11.40
2018-04-28T02:41:03.333Z,11.40
2018-04-28T02:43:51.228Z,11.50
2018-04-28T02:49:26.831Z,11.40
2018-04-28T02:52:07.264Z,11.30
2018-04-28T02:54:37.041Z,11.20
2018-04-28T02:57:22.198Z,11.20
2018-04-28T02:59:50.529Z,11.20
2018-04-28T03:02:26.826Z,11.20
2018-04-28T03:08:15.861Z,11.30
2018-04-28T03:10:48.819Z,11.40
2018-04-28T03:13:20.994Z,11.40
2018-04-28T03:15:48.567Z,11.50
2018-04-28T03:18:16.895Z,11.50
2018-04-28T03:20:46.283Z,11.50
2018-04-28T03:23:24.588Z,11.60
2018-04-28T03:25:56.752Z,11.80
2018-04-28T03:28:36.819Z,11.80
2018-04-28T03:31:06.969Z,11.80
2018-04-28T03:33:38.044Z,11.90
2018-04-28T03:36:22.241Z,11.80
2018-04-28T03:38:55.659Z,11.80
2018-04-28T03:41:25.110Z,11.80
2018-04-28T03:44:13.875Z,11.90
2018-04-28T03:46:42.230Z,11.90
2018-04-28T03:49:15.143Z,12.00
2018-04-28T03:51:50.635Z,11.90
2018-04-28T03:57:37.718Z,11.80
2018-04-28T04:00:17.013Z,11.70
2018-04-28T04:02:56.391Z,11.60
2018-04-28T04:05:33.473Z,11.40
2018-04-28T04:08:01.031Z,11.40
2018-04-28T04:10:30.744Z,11.40
2018-04-28T04:12:59.861Z,11.40
2018-04-28T04:15:34.191Z,11.30
2018-04-28T04:21:23.433Z,11.10
2018-04-28T04:24:02.873Z,11.10
2018-04-28T04:29:57.800Z,11.00
2018-04-28T04:32:26.144Z,10.90
2018-04-28T04:38:19.685Z,10.80
2018-04-28T04:40:51.959Z,10.80
2018-04-28T04:43:34.056Z,10.80
2018-04-28T04:46:05.455Z,10.80
2018-04-28T04:48:40.521Z,10.80
2018-04-28T04:51:19.718Z,10.90
2018-04-28T04:57:27.610Z,11.00
2018-04-28T05:03:03.551Z,11.00
2018-04-28T05:05:32.649Z,11.00
2018-04-28T05:08:08.683Z,11.00
2018-04-28T05:10:45.131Z,10.90
2018-04-28T05:13:23.626Z,11.00
2018-04-28T05:19:03.237Z,11.10
2018-04-28T05:21:38.325Z,11.30
2018-04-28T05:24:17.740Z,11.30
2018-04-28T05:26:52.781Z,11.40
2018-04-28T05:32:50.266Z,11.60
2018-04-28T05:38:43.292Z,11.80
2018-04-28T05:41:48.308Z,11.90
2018-04-28T05:44:27.776Z,12.10
2018-04-28T05:46:58.079Z,12.20
2018-04-28T05:49:25.642Z,12.40
2018-04-28T05:52:15.584Z,12.50
2018-04-28T05:58:06.171Z,13.30
2018-04-28T06:00:46.355Z,13.50
2018-04-28T06:03:21.657Z,13.50
2018-04-28T06:08:52.413Z,13.50
2018-04-28T06:11:26.655Z,13.50
2018-04-28T06:14:06.120Z,13.60
2018-04-28T06:20:03.700Z,13.90
2018-04-28T06:22:31.989Z,13.80
2018-04-28T06:24:59.550Z,13.80
2018-04-28T06:27:27.111Z,13.90
2018-04-28T06:29:54.720Z,13.90
2018-04-28T06:32:23.045Z,13.90
2018-04-28T06:34:50.619Z,13.90
2018-04-28T06:37:18.160Z,14.00
2018-04-28T06:39:45.726Z,13.90
2018-04-28T06:42:13.262Z,14.00
2018-04-28T06:44:40.807Z,14.30
2018-04-28T06:47:09.143Z,14.40
2018-04-28T06:49:36.691Z,14.30
2018-04-28T06:52:04.259Z,14.40
2018-04-28T06:54:31.820Z,14.80
2018-04-28T06:56:59.372Z,15.10
2018-04-28T06:59:26.913Z,15.30
2018-04-28T07:01:54.490Z,15.50
2018-04-28T07:04:22.051Z,15.50
2018-04-28T07:06:49.639Z,15.40
2018-04-28T07:09:17.175Z,15.30
2018-04-28T07:11:44.739Z,15.30
2018-04-28T07:14:12.283Z,15.10
2018-04-28T07:16:39.863Z,15.10
2018-04-28T07:19:07.411Z,15.10
2018-04-28T07:21:34.974Z,15.00
2018-04-28T07:24:02.532Z,15.00
2018-04-28T07:26:30.116Z,14.70
2018-04-28T07:28:57.655Z,14.70
2018-04-28T07:31:25.986Z,14.70
2018-04-28T07:33:53.531Z,14.70
2018-04-28T07:36:21.861Z,14.40
2018-04-28T07:38:49.401Z,14.40
2018-04-28T07:41:16.964Z,14.30
2018-04-28T07:43:44.520Z,14.20
2018-04-28T07:46:12.081Z,14.10
2018-04-28T07:48:39.647Z,14.20
2018-04-28T07:51:07.219Z,14.30
2018-04-28T07:53:34.765Z,14.40
2018-04-28T07:56:02.345Z,14.50
2018-04-28T07:58:29.898Z,14.60
2018-04-28T08:00:57.464Z,14.70
2018-04-28T08:03:25.010Z,14.60
2018-04-28T08:05:52.581Z,14.60
2018-04-28T08:08:20.123Z,14.70
2018-04-28T08:10:47.703Z,14.80
2018-04-28T08:13:15.252Z,14.70
2018-04-28T08:15:42.830Z,14.90
2018-04-28T08:18:10.410Z,15.20
2018-04-28T08:20:38.764Z,15.80
2018-04-28T08:23:06.319Z,15.80
2018-04-28T08:25:33.878Z,16.20
2018-04-28T08:28:01.457Z,16.70
2018-04-28T08:30:29.003Z,17.10
2018-04-28T08:32:56.583Z,17.20
2018-04-28T08:35:24.902Z,17.30
2018-04-28T08:37:52.476Z,17.30
2018-04-28T08:40:20.344Z,17.40
2018-04-28T08:42:47.921Z,17.60
2018-04-28T08:45:15.491Z,17.70
2018-04-28T08:47:43.062Z,17.70
2018-04-28T08:50:10.600Z,17.80
2018-04-28T08:52:38.175Z,17.60
2018-04-28T08:55:05.793Z,17.50
2018-04-28T08:57:33.358Z,17.60
2018-04-28T09:00:12.769Z,17.70
2018-04-28T09:02:40.350Z,17.80
2018-04-28T09:05:07.887Z,17.70
2018-04-28T09:07:38.237Z,17.70
2018-04-28T09:10:05.901Z,17.80
2018-04-28T10:34:31.371Z,19.30
2018-04-28T10:36:58.919Z,19.20
2018-04-28T10:39:26.478Z,19.30
2018-04-28T10:41:54.019Z,19.50
2018-04-28T10:44:21.584Z,20.00
2018-04-28T10:46:49.122Z,20.30
2018-04-28T10:49:17.449Z,20.70
2018-04-28T10:51:44.990Z,20.70
2018-04-28T10:54:13.362Z,20.70
2018-04-28T10:56:40.897Z,20.70
2018-04-28T10:59:09.235Z,21.00
2018-04-28T11:01:36.780Z,20.90
2018-04-28T11:04:04.353Z,21.20
2018-04-28T11:06:31.901Z,21.40
2018-04-28T11:08:59.463Z,21.60
2018-04-28T11:11:27.035Z,21.60
2018-04-28T11:13:54.597Z,21.80
2018-04-28T11:16:22.159Z,21.90
2018-04-28T11:18:49.735Z,22.00
2018-04-28T11:21:18.057Z,22.40
2018-04-28T11:23:45.723Z,22.40
2018-04-28T11:26:13.291Z,22.30
2018-04-28T11:28:40.858Z,22.30
2018-04-28T11:31:08.399Z,22.40
2018-04-28T11:33:35.963Z,22.60
2018-04-28T11:36:03.507Z,22.60
2018-04-28T11:38:31.108Z,22.40
2018-04-28T11:40:58.653Z,22.20
2018-04-28T11:43:26.225Z,22.20
2018-04-28T11:45:53.781Z,22.40
2018-04-28T11:48:21.349Z,22.30
2018-04-28T11:50:48.951Z,22.40
2018-04-28T11:53:17.283Z,23.10
2018-04-28T11:55:44.863Z,23.00
2018-04-28T11:58:12.400Z,23.20
2018-04-28T12:00:39.967Z,23.10
2018-04-28T12:03:07.503Z,23.30
2018-04-28T12:05:35.086Z,23.50
2018-04-28T12:08:02.631Z,23.50
2018-04-28T12:10:30.194Z,23.70
2018-04-28T12:12:57.731Z,23.90
2018-04-28T12:15:25.290Z,23.70
2018-04-28T12:17:52.834Z,23.80
2018-04-28T12:20:20.406Z,23.80
2018-04-28T12:22:47.949Z,23.70
2018-04-28T12:25:15.535Z,23.40
2018-04-28T12:27:43.091Z,23.50
2018-04-28T12:30:10.656Z,23.50
2018-04-28T12:32:38.201Z,23.60
2018-04-28T12:35:05.773Z,23.20
2018-04-28T12:37:33.336Z,23.30
2018-04-28T12:40:00.925Z,23.20
2018-04-28T12:42:28.475Z,23.20
2018-04-28T12:44:56.039Z,23.30
2018-04-28T12:47:23.590Z,23.20
2018-04-28T12:49:51.231Z,23.20
2018-04-28T12:52:18.776Z,22.90
2018-04-28T12:54:47.311Z,23.00
2018-04-28T12:57:14.928Z,22.80
2018-04-28T12:59:43.473Z,22.80
2018-04-28T13:02:13.922Z,22.60
2018-04-28T13:04:41.500Z,22.40
2018-04-28T13:07:09.062Z,22.40
2018-04-28T13:09:36.599Z,22.60
2018-04-28T13:12:04.167Z,22.60
2018-04-28T13:14:31.697Z,22.60
2018-04-28T13:17:00.044Z,22.30
2018-04-28T13:19:27.592Z,22.30
2018-04-28T13:21:55.155Z,22.40
2018-04-28T13:24:22.695Z,22.10
2018-04-28T13:26:50.281Z,22.20
2018-04-28T13:29:17.907Z,22.30
2018-04-28T13:31:45.412Z,22.40
2018-04-28T13:34:12.955Z,22.60
2018-04-28T13:36:40.535Z,22.70
2018-04-28T13:39:08.085Z,22.40
2018-04-28T13:41:35.659Z,22.50
2018-04-28T13:44:03.204Z,22.50
2018-04-28T13:46:31.888Z,22.70
2018-04-28T13:48:59.482Z,23.00
2018-04-28T13:51:27.813Z,22.60
2018-04-28T13:53:55.355Z,22.60
2018-04-28T13:56:22.980Z,22.60
2018-04-28T13:58:50.490Z,22.50
2018-04-28T14:01:18.054Z,22.50
2018-04-28T14:03:45.591Z,22.50
2018-04-28T14:06:13.151Z,22.60
2018-04-28T14:08:40.689Z,22.60
2018-04-28T14:11:08.271Z,22.50
2018-04-28T14:13:35.817Z,22.60
2018-04-28T14:16:03.390Z,22.70
2018-04-28T14:18:30.948Z,22.70
2018-04-28T14:20:58.510Z,22.70
2018-04-28T14:23:26.062Z,22.80
2018-04-28T14:25:53.594Z,22.70
2018-04-28T14:28:21.935Z,22.70
2018-04-28T14:30:49.502Z,22.70
2018-04-28T14:33:17.081Z,22.90
2018-04-28T14:35:45.401Z,22.90
2018-04-28T14:38:12.963Z,22.90
2018-04-28T14:40:40.502Z,22.60
2018-04-28T14:43:08.080Z,22.50
2018-04-28T14:45:35.622Z,22.60
2018-04-28T14:48:03.408Z,22.30
2018-04-28T14:50:30.962Z,22.20
2018-04-28T14:52:58.525Z,22.10
2018-04-28T14:55:26.053Z,22.10
2018-04-28T14:57:54.395Z,22.40
2018-04-28T15:00:21.946Z,22.40
2018-04-28T15:02:49.501Z,22.50
2018-04-28T15:05:17.055Z,22.50
2018-04-28T15:07:44.613Z,22.30
2018-04-28T15:10:12.156Z,22.20
2018-04-28T15:12:39.714Z,22.10
2018-04-28T15:15:07.267Z,22.00
2018-04-28T15:17:34.890Z,21.80
2018-04-28T15:20:03.513Z,22.10
2018-04-28T15:22:31.083Z,22.10
2018-04-28T15:24:58.629Z,22.20
2018-04-28T15:27:26.183Z,22.30
2018-04-28T15:29:53.710Z,22.40
2018-04-28T15:32:22.068Z,22.50
2018-04-28T15:34:49.938Z,22.50
2018-04-28T15:37:18.294Z,22.60
2018-04-28T15:39:45.840Z,22.60
2018-04-28T15:42:13.414Z,22.60
2018-04-28T15:44:40.963Z,22.50
2018-04-28T15:47:09.543Z,22.40
2018-04-28T15:49:37.203Z,22.40
2018-04-28T15:52:04.742Z,22.10
2018-04-28T15:54:33.074Z,22.10
2018-04-28T15:57:00.614Z,22.10
2018-04-28T15:59:28.189Z,22.00
2018-04-28T16:01:55.743Z,21.70
2018-04-28T16:04:23.313Z,21.50
2018-04-28T16:06:50.870Z,21.40
2018-04-28T16:09:18.426Z,21.70
2018-04-28T16:11:46.050Z,21.80
2018-04-28T16:14:13.572Z,21.90
2018-04-28T16:16:41.905Z,21.60
2018-04-28T16:19:09.487Z,21.60
2018-04-28T16:21:37.031Z,21.50
2018-04-28T16:24:04.604Z,21.30
2018-04-28T16:26:32.151Z,21.20
2018-04-28T16:28:59.712Z,21.00
2018-04-28T16:31:27.256Z,20.90
2018-04-28T16:33:54.809Z,20.90
2018-04-28T16:36:22.354Z,21.00
2018-04-28T16:38:50.854Z,21.00
2018-04-28T16:41:18.412Z,21.30
2018-04-28T16:43:45.971Z,21.60
2018-04-28T16:46:13.517Z,21.80
2018-04-28T16:48:41.194Z,22.00
2018-04-28T16:51:08.759Z,21.90
2018-04-28T16:53:36.326Z,22.00
2018-04-28T16:56:05.823Z,21.80
2018-04-28T16:58:33.431Z,21.90
2018-04-28T17:01:01.760Z,21.90
2018-04-28T17:03:29.304Z,21.90
2018-04-28T17:05:56.869Z,21.90
2018-04-28T17:08:24.406Z,22.00
2018-04-28T17:10:52.735Z,22.20
2018-04-28T17:13:20.284Z,22.20
2018-04-28T17:15:47.857Z,22.10
2018-04-28T17:18:15.417Z,21.80
2018-04-28T17:20:43.007Z,21.50
2018-04-28T17:23:10.564Z,21.10
2018-04-28T17:25:38.902Z,20.60
2018-04-28T17:28:06.433Z,20.50
2018-04-28T17:30:35.017Z,20.30
2018-04-28T17:33:02.568Z,20.10
2018-04-28T17:35:30.122Z,19.90
2018-04-28T17:37:58.445Z,19.40
2018-04-28T17:40:26.769Z,19.30
2018-04-28T17:42:55.096Z,19.20
2018-04-28T17:45:22.662Z,19.20
2018-04-28T17:47:50.205Z,19.10
2018-04-28T17:50:17.768Z,19.00
2018-04-28T17:52:45.319Z,18.90
2018-04-28T17:55:12.884Z,18.80
2018-04-28T17:57:40.426Z,18.80
2018-04-28T18:00:07.999Z,18.70
2018-04-28T18:02:35.566Z,18.60
2018-04-28T18:05:03.143Z,18.60
2018-04-28T18:07:30.678Z,18.60
2018-04-28T18:09:58.235Z,18.50
2018-04-28T18:12:25.783Z,18.50
2018-04-28T18:14:53.362Z,18.50
2018-04-28T18:17:20.914Z,18.40
2018-04-28T18:19:48.479Z,18.40
2018-04-28T18:22:16.030Z,18.30
2018-04-28T18:24:43.601Z,18.30
2018-04-28T18:27:11.134Z,18.30
2018-04-28T18:29:38.669Z,18.30
2018-04-28T18:32:06.995Z,18.20
2018-04-28T18:34:34.563Z,18.20
2018-04-28T18:37:02.131Z,18.20
2018-04-28T18:39:29.682Z,18.10
2018-04-28T18:41:57.247Z,18.00
2018-04-28T18:44:24.786Z,17.90
2018-04-28T18:46:52.359Z,18.00
2018-04-28T18:49:19.904Z,18.00
2018-04-28T18:51:47.476Z,18.00
2018-04-28T18:54:15.028Z,17.90
2018-04-28T18:56:42.591Z,17.80
2018-04-28T18:59:10.144Z,17.80
2018-04-28T19:01:37.720Z,17.80
2018-04-28T19:04:05.261Z,17.70
2018-04-28T19:06:32.824Z,17.70
2018-04-28T19:09:00.362Z,17.70
2018-04-28T19:11:27.944Z,17.70
2018-04-28T19:13:55.485Z,17.60
2018-04-28T19:16:23.060Z,17.70
2018-04-28T19:18:50.619Z,17.70
2018-04-28T19:21:18.194Z,17.70
2018-04-28T19:23:45.733Z,17.70
2018-04-28T19:26:13.292Z,17.70
2018-04-28T19:28:40.830Z,17.70
2018-04-28T19:31:09.213Z,17.60
2018-04-28T19:33:36.741Z,17.60
2018-04-28T19:36:04.316Z,17.60
2018-04-28T19:38:32.633Z,17.40
2018-04-28T19:41:00.207Z,17.40
2018-04-28T19:43:27.751Z,17.40
2018-04-28T19:45:55.327Z,17.30
2018-04-28T19:48:22.884Z,17.20
2018-04-28T19:50:50.445Z,17.00
2018-04-28T19:53:17.988Z,16.90
2018-04-28T19:55:45.566Z,16.80
2018-04-28T19:58:13.122Z,16.80
2018-04-28T20:00:40.668Z,16.70
2018-04-28T20:03:08.243Z,16.80
2018-04-28T20:05:35.785Z,16.80
2018-04-28T20:08:03.343Z,16.70
2018-04-28T20:10:30.887Z,16.70
2018-04-28T20:12:58.463Z,16.70
2018-04-28T20:15:26.000Z,16.80
2018-04-28T20:17:53.583Z,16.80
2018-04-28T20:20:21.123Z,16.80
2018-04-28T20:23:00.529Z,16.70
2018-04-28T20:25:28.068Z,16.50
2018-04-28T20:27:55.631Z,16.50
2018-04-28T20:30:23.177Z,16.40
2018-04-28T20:32:50.764Z,16.40
2018-04-28T20:35:18.311Z,16.40
2018-04-28T20:37:45.884Z,16.20
2018-04-28T20:40:13.428Z,16.10
2018-04-28T20:42:40.997Z,16.10
2018-04-28T20:45:08.641Z,16.00
2018-04-28T20:47:36.301Z,15.90
2018-04-28T20:50:03.935Z,15.80
2018-04-28T20:52:31.621Z,15.70
2018-04-28T20:54:59.193Z,15.70
2018-04-28T20:57:26.846Z,15.70
2018-04-28T20:59:54.409Z,15.70
2018-04-28T21:02:21.951Z,15.70
2018-04-28T21:04:49.498Z,15.70
2018-04-28T21:07:17.067Z,15.70
2018-04-28T21:09:44.610Z,15.70
2018-04-28T21:12:12.184Z,15.70
2018-04-28T21:14:39.734Z,15.70
2018-04-28T21:17:07.311Z,15.60
2018-04-28T21:19:34.858Z,15.50
2018-04-28T21:22:02.423Z,15.50
2018-04-28T21:24:30.039Z,15.40
2018-04-28T21:26:57.577Z,15.30
2018-04-28T21:29:25.123Z,15.30
2018-04-28T21:31:52.682Z,15.30
2018-04-28T21:34:20.236Z,15.30
2018-04-28T21:36:47.783Z,15.30
2018-04-28T21:39:15.360Z,15.30
2018-04-28T21:41:42.895Z,15.30
2018-04-28T21:44:10.463Z,15.40
2018-04-28T21:46:38.016Z,15.40
2018-04-28T21:49:05.585Z,15.40
2018-04-28T21:51:33.123Z,15.30
2018-04-28T21:54:00.679Z,15.30
2018-04-28T21:56:28.219Z,15.30
2018-04-28T21:58:56.564Z,15.10
2018-04-28T22:01:24.115Z,15.10
2018-04-28T22:03:51.680Z,15.10
2018-04-28T22:06:19.223Z,15.00
2018-04-28T22:08:46.795Z,15.00
2018-04-28T22:11:14.348Z,14.90
2018-04-28T22:13:41.910Z,14.90
2018-04-28T22:16:09.458Z,14.90
2018-04-28T22:18:37.031Z,14.80
2018-04-28T22:21:04.598Z,14.80
2018-04-28T22:23:32.214Z,14.80
2018-04-28T22:26:00.526Z,14.80
2018-04-28T22:28:28.087Z,14.80
2018-04-28T22:30:55.634Z,14.80
2018-04-28T22:33:23.201Z,14.80
2018-04-28T22:35:50.744Z,14.70
2018-04-28T22:38:18.302Z,14.60
2018-04-28T22:40:45.843Z,14.60
2018-04-28T22:43:13.406Z,14.60
2018-04-28T22:45:40.962Z,14.50
2018-04-28T22:48:08.536Z,14.50
2018-04-28T22:50:36.079Z,14.50
2018-04-28T22:53:03.626Z,14.50
2018-04-28T22:55:31.962Z,14.60
2018-04-28T22:57:59.503Z,14.60
2018-04-28T23:00:27.064Z,14.60
2018-04-28T23:02:54.608Z,14.60
2018-04-28T23:05:22.172Z,14.60
2018-04-28T23:07:49.715Z,14.60
2018-04-28T23:10:17.293Z,14.60
2018-04-28T23:12:44.853Z,14.60
2018-04-28T23:15:12.428Z,14.70
2018-04-28T23:17:39.972Z,14.70
2018-04-28T23:20:07.543Z,14.70
2018-04-28T23:22:35.067Z,14.70
2018-04-28T23:25:02.635Z,14.80
2018-04-28T23:27:30.180Z,14.80
2018-04-28T23:29:57.757Z,14.70
2018-04-28T23:32:25.303Z,14.60
2018-04-28T23:34:52.871Z,14.70
2018-04-28T23:37:20.433Z,14.70
2018-04-28T23:39:47.995Z,14.70
2018-04-28T23:42:15.537Z,14.70
2018-04-28T23:44:43.093Z,14.70
2018-04-28T23:47:11.404Z,14.60
2018-04-28T23:49:38.963Z,14.60
2018-04-28T23:52:06.520Z,14.70
2018-04-28T23:54:34.097Z,14.60
2018-04-28T23:57:01.648Z,14.70
2018-04-28T23:59:29.213Z,14.80
